Pittsburgh, PA (15202)

12:54 AM EDT on August 30, 2015 (GMT -0400)
Perrysville | | Change Station
CLOSE
Current Station
Personal Weather Station
Location: Pittsburgh, PA
Elevation: 1175 ft
Nearby Weather Stations

Elev 1175 ft 40.54 °N, 80.04 °W | Updated 34 seconds ago

Partly Cloudy
Partly Cloudy
71.2 °F
Feels Like 74 °F
N
0.0
Wind Variable Wind from SSE
Gusts 1.6 mph

Today
High -- | Low -- °F
--% Chance of Precip.
Yesterday
High -- | Low -- °F
Precip. -- in
6:45 AM 7:55 PM
Full, 100% visible
Pressure 30.09 in
Visibility 10.0 miles
Clouds Few 9000 ft
Scattered Clouds 12000 ft
Scattered Clouds 20000 ft
Heat Index 74 °F
Dew Point 62 °F
Humidity 73%
Rainfall 0.00 in
Snow Depth Not available.
UV 0 out of 12
Pollen 9.80 out of 12
Air Quality Not available.
Flu Activity Not available.
METAR KPIT 300451Z 22004KT 10SM FEW090 SCT120 SCT200 23/16 A3010 RMK AO2 SLP190 T02280161 402890128
Pressure 30.09 in
Visibility 10.0 miles
Clouds Few 9000 ft
Scattered Clouds 12000 ft
Scattered Clouds 20000 ft
Heat Index 74 °F
Dew Point 62 °F
Humidity 73%
Rainfall 0.00 in
Snow Depth Not available.
UV 0 out of 12
Pollen 9.80 out of 12
Air Quality Not available.
Flu Activity Not available.
METAR KPIT 300451Z 22004KT 10SM FEW090 SCT120 SCT200 23/16 A3010 RMK AO2 SLP190 T02280161 402890128

10-Day Weather Forecast

×

Almanac

Astronomy

Aug. 30, 2015 Rise Set
Actual Time
Civil Twilight
Nautical Twilight
Astronomical Twilight
Moon
Length of Visible Light
Length of Day
Tomorrow will be .
, % of the Moon is Illuminated

Today's Extremes

State Highs State Lows

Community

WunderPhotos

Upload Photos

1,850,887 photos uploaded!

WunderBlogs® & News

Nearby

Air Quality

  Air Quality AQ Index Pollutant
Not available.

Snow Depth

Station Depth Elevation

Earthquake Activity

City Distance Mag. Time & Date
Minimum magnitude displayed is 2.5.

Coastal Water Temperatures

Place Temperature

Stations

Nearby Weather Stations

Station Location Temp. Windchill Dew Point Humidity Wind Precip. Elev Updated Type